Time;durP1;ratioP1;P1;durP2;ratioP2;P2;SDS_P1;SDS_P2;PMS_P1;PMS_P2;Temp;Humidity;BMP_temperature;BMP_pressure;BME280_temperature;BME280_humidity;BME280_pressure;Samples;Min_cycle;Max_cycle;Signal;HPM_P1;HPM_P2
2021/07/16 00:11:13;;;;;;;40.47;26.33;;;;;;;;;;3591687;40;20207;-83
2021/07/16 00:13:54;;;;;;;43.28;27.73;;;;;;;;;;3583967;40;20219;-83
2021/07/16 00:22:27;;;;;;;35.20;22.02;;;;;;;;;;3591366;40;20297;-86
2021/07/16 00:27:28;;;;;;;46.92;28.77;;;;;;;;;;3583096;40;20222;-82
2021/07/16 00:33:20;;;;;;;48.40;29.10;;;;;;;;;;3591067;40;20280;-84
2021/07/16 00:41:25;;;;;;;41.75;27.88;;;;;;;;;;3608343;22;20242;31
2021/07/16 00:49:26;;;;;;;50.65;31.98;;;;;;;;;;3600795;40;20261;-84
2021/07/16 00:51:53;;;;;;;45.75;27.95;;;;;;;;;;3593467;40;20211;-85
2021/07/16 00:54:20;;;;;;;40.40;31.08;;;;;;;;;;3601485;40;20692;-84
2021/07/16 00:57:00;;;;;;;39.40;29.27;;;;;;;;;;3601892;40;20694;-85
2021/07/16 01:02:02;;;;;;;35.67;27.48;;;;;;;;;;3590358;40;20239;-84
2021/07/16 01:04:43;;;;;;;36.35;25.92;;;;;;;;;;3584310;40;20223;-84
2021/07/16 01:07:28;;;;;;;39.13;27.77;;;;;;;;;;3591936;40;20231;-84
2021/07/16 01:10:02;;;;;;;41.53;26.42;;;;;;;;;;3590872;40;20244;-84
2021/07/16 01:12:31;;;;;;;38.67;29.88;;;;;;;;;;3584314;40;20242;-84
2021/07/16 01:15:05;;;;;;;37.53;29.10;;;;;;;;;;3585354;40;20285;-84
2021/07/16 01:17:33;;;;;;;42.03;28.08;;;;;;;;;;3584814;40;20207;-84
2021/07/16 01:20:10;;;;;;;37.55;27.25;;;;;;;;;;3584942;40;20243;-86
2021/07/16 01:22:38;;;;;;;42.58;29.38;;;;;;;;;;3593503;40;20735;-84
2021/07/16 01:25:08;;;;;;;38.15;28.45;;;;;;;;;;3593321;40;20239;-83
2021/07/16 01:27:36;;;;;;;42.03;28.40;;;;;;;;;;3593449;40;20259;-83
2021/07/16 01:30:16;;;;;;;37.53;27.40;;;;;;;;;;3592854;40;20223;-83
2021/07/16 01:32:44;;;;;;;42.47;28.88;;;;;;;;;;3584653;40;20255;-83
2021/07/16 01:35:12;;;;;;;43.55;26.80;;;;;;;;;;3584676;40;20219;-84
2021/07/16 01:37:40;;;;;;;50.92;30.15;;;;;;;;;;3592736;40;20235;-82
2021/07/16 01:40:10;;;;;;;37.03;27.80;;;;;;;;;;3593399;40;20266;-82
2021/07/16 01:42:38;;;;;;;47.42;26.52;;;;;;;;;;3593119;40;20258;-84
2021/07/16 01:45:06;;;;;;;37.97;27.17;;;;;;;;;;3593362;40;20279;-83
2021/07/16 01:47:33;;;;;;;41.58;30.83;;;;;;;;;;3592721;40;20251;-85
2021/07/16 01:50:02;;;;;;;40.75;27.33;;;;;;;;;;3592641;40;20492;-84
2021/07/16 01:52:36;;;;;;;40.45;28.90;;;;;;;;;;3593256;40;20266;-86
2021/07/16 01:55:12;;;;;;;40.90;29.23;;;;;;;;;;3584483;40;20231;-82
2021/07/16 01:57:59;;;;;;;37.33;28.50;;;;;;;;;;3593297;40;20254;-82
2021/07/16 02:00:33;;;;;;;33.95;26.48;;;;;;;;;;3593084;40;20223;-82
2021/07/16 02:03:01;;;;;;;33.25;26.42;;;;;;;;;;3593070;40;20269;-83
2021/07/16 02:05:29;;;;;;;34.25;26.35;;;;;;;;;;3584639;40;20235;-84
2021/07/16 02:07:58;;;;;;;39.03;27.52;;;;;;;;;;3593133;40;20235;-83
2021/07/16 02:10:38;;;;;;;32.78;26.40;;;;;;;;;;3593481;40;20273;-84
2021/07/16 02:13:12;;;;;;;37.38;25.85;;;;;;;;;;3582814;40;20239;-83
2021/07/16 02:15:41;;;;;;;39.58;27.05;;;;;;;;;;3582760;40;20219;-84
2021/07/16 02:18:09;;;;;;;42.88;26.27;;;;;;;;;;3583009;40;20236;-82
2021/07/16 02:20:48;;;;;;;40.58;25.60;;;;;;;;;;3582675;40;20349;-82
2021/07/16 02:23:34;;;;;;;33.45;25.65;;;;;;;;;;3575400;40;20238;-81
2021/07/16 02:26:21;;;;;;;32.50;24.83;;;;;;;;;;3575758;40;20247;-83
2021/07/16 02:29:01;;;;;;;37.53;27.05;;;;;;;;;;3574545;40;20216;-83
2021/07/16 02:31:40;;;;;;;45.63;27.77;;;;;;;;;;3592834;40;20231;-83
2021/07/16 02:34:30;;;;;;;36.63;25.45;;;;;;;;;;3593134;40;20284;-82
2021/07/16 02:36:57;;;;;;;45.47;30.33;;;;;;;;;;3593133;40;20277;-84
2021/07/16 02:39:30;;;;;;;37.38;27.27;;;;;;;;;;3593029;40;20223;-84
2021/07/16 02:41:59;;;;;;;45.60;29.45;;;;;;;;;;3592719;40;20243;-88
2021/07/16 02:44:26;;;;;;;45.08;29.35;;;;;;;;;;3592895;40;20230;-84
2021/07/16 02:47:00;;;;;;;41.00;28.83;;;;;;;;;;3593079;40;20219;-84
2021/07/16 02:49:27;;;;;;;42.55;31.50;;;;;;;;;;3592339;40;20769;-84
2021/07/16 02:51:54;;;;;;;44.05;28.85;;;;;;;;;;3592891;40;20235;-84
2021/07/16 02:54:22;;;;;;;40.28;28.27;;;;;;;;;;3592650;40;20255;-83
2021/07/16 02:57:03;;;;;;;42.00;30.88;;;;;;;;;;3591919;40;20293;-83
2021/07/16 02:59:36;;;;;;;29.42;24.42;;;;;;;;;;3592795;40;20274;-82
2021/07/16 03:02:06;;;;;;;38.42;26.85;;;;;;;;;;3592606;40;20239;-82
2021/07/16 03:04:34;;;;;;;32.83;25.17;;;;;;;;;;3592808;40;20289;-82
2021/07/16 03:07:07;;;;;;;37.63;25.77;;;;;;;;;;3592775;40;20247;-83
2021/07/16 03:09:40;;;;;;;32.42;23.52;;;;;;;;;;3592635;40;20824;-84
2021/07/16 03:12:15;;;;;;;36.90;27.77;;;;;;;;;;3592080;40;20261;-83
2021/07/16 03:14:48;;;;;;;35.40;26.85;;;;;;;;;;3592415;40;20273;-82
2021/07/16 03:17:16;;;;;;;31.55;25.67;;;;;;;;;;3592826;40;20214;-82
2021/07/16 03:20:01;;;;;;;34.30;27.35;;;;;;;;;;3592465;40;20247;-82
2021/07/16 03:22:34;;;;;;;41.40;26.98;;;;;;;;;;3592586;40;20237;-80
2021/07/16 03:25:21;;;;;;;35.63;24.05;;;;;;;;;;3592648;40;20304;-83
2021/07/16 03:27:49;;;;;;;34.35;25.05;;;;;;;;;;3592817;40;20293;-82
2021/07/16 03:30:24;;;;;;;31.92;25.42;;;;;;;;;;3592485;40;20230;-83
2021/07/16 03:32:51;;;;;;;27.40;24.63;;;;;;;;;;3592027;40;20746;-82
2021/07/16 03:35:25;;;;;;;35.50;25.45;;;;;;;;;;3591965;40;20247;-84
2021/07/16 03:37:53;;;;;;;34.42;25.77;;;;;;;;;;3592322;40;20239;-84
2021/07/16 03:40:28;;;;;;;33.40;24.45;;;;;;;;;;3592715;40;20235;-84
2021/07/16 03:42:57;;;;;;;33.95;25.38;;;;;;;;;;3592230;40;20296;-85
2021/07/16 03:45:31;;;;;;;36.28;26.60;;;;;;;;;;3592320;40;20240;-87
2021/07/16 03:48:04;;;;;;;31.73;26.00;;;;;;;;;;3584365;40;20255;-84
2021/07/16 03:50:44;;;;;;;30.90;24.98;;;;;;;;;;3592585;40;20251;-82
2021/07/16 03:53:23;;;;;;;37.95;26.83;;;;;;;;;;3592275;40;20800;-83
2021/07/16 03:55:57;;;;;;;35.58;26.42;;;;;;;;;;3592352;40;20238;-85
2021/07/16 03:58:32;;;;;;;27.13;22.33;;;;;;;;;;3592552;40;20313;-82
2021/07/16 04:00:59;;;;;;;28.13;24.02;;;;;;;;;;3592475;40;20250;-83
2021/07/16 04:03:32;;;;;;;34.83;26.40;;;;;;;;;;3592369;40;20235;-85
2021/07/16 04:06:05;;;;;;;36.95;25.40;;;;;;;;;;3592485;40;20218;-82
2021/07/16 04:08:35;;;;;;;38.22;25.42;;;;;;;;;;3592029;40;20235;-83
2021/07/16 04:11:02;;;;;;;32.30;24.80;;;;;;;;;;3592368;40;20238;-83
2021/07/16 04:13:31;;;;;;;35.10;23.13;;;;;;;;;;3575310;40;20251;-82
2021/07/16 04:15:59;;;;;;;41.70;26.83;;;;;;;;;;3591921;40;20238;-81
2021/07/16 04:18:26;;;;;;;34.25;24.30;;;;;;;;;;3583698;40;20227;-86
2021/07/16 04:20:53;;;;;;;39.10;27.13;;;;;;;;;;3583756;40;20642;-85
2021/07/16 04:23:26;;;;;;;30.42;22.67;;;;;;;;;;3575738;40;20234;-81
2021/07/16 04:26:12;;;;;;;32.38;26.98;;;;;;;;;;3592298;40;20247;-84
2021/07/16 04:28:46;;;;;;;36.85;27.70;;;;;;;;;;3591995;40;20685;-80
2021/07/16 04:31:14;;;;;;;42.28;27.77;;;;;;;;;;3583528;40;20222;-81
2021/07/16 04:33:47;;;;;;;38.15;26.95;;;;;;;;;;3591834;40;20840;-82
2021/07/16 04:36:20;;;;;;;42.10;27.90;;;;;;;;;;3592250;40;20234;-82
2021/07/16 04:39:00;;;;;;;45.67;29.58;;;;;;;;;;3591219;40;20231;-81
2021/07/16 04:41:27;;;;;;;41.63;30.65;;;;;;;;;;3583470;40;20289;-81
2021/07/16 04:43:56;;;;;;;47.05;29.33;;;;;;;;;;3592752;40;20257;-80
2021/07/16 04:46:24;;;;;;;43.67;29.13;;;;;;;;;;3585056;40;20235;-81
2021/07/16 04:49:04;;;;;;;56.15;31.90;;;;;;;;;;3593346;40;20219;-82
2021/07/16 04:51:37;;;;;;;59.72;32.78;;;;;;;;;;3593760;40;20243;-82
2021/07/16 04:54:05;;;;;;;48.90;30.92;;;;;;;;;;3584638;40;20247;-82
2021/07/16 04:56:33;;;;;;;55.33;30.48;;;;;;;;;;3593651;40;20226;-84
2021/07/16 04:59:02;;;;;;;53.15;32.80;;;;;;;;;;3593529;40;20215;-82
2021/07/16 05:01:35;;;;;;;51.53;30.80;;;;;;;;;;3593579;40;20780;-82
2021/07/16 05:04:02;;;;;;;54.72;29.45;;;;;;;;;;3593468;40;20314;-83
2021/07/16 05:06:30;;;;;;;44.63;28.90;;;;;;;;;;3593557;40;20769;-80
2021/07/16 05:08:57;;;;;;;50.50;30.98;;;;;;;;;;3593599;40;20823;-81
2021/07/16 05:11:30;;;;;;;52.67;32.20;;;;;;;;;;3593500;40;20241;-85
2021/07/16 05:13:58;;;;;;;59.08;32.58;;;;;;;;;;3593481;40;20255;-83
2021/07/16 05:16:27;;;;;;;50.17;29.23;;;;;;;;;;3593380;40;20238;-82
2021/07/16 05:18:54;;;;;;;45.85;31.15;;;;;;;;;;3593587;40;20253;-82
2021/07/16 05:21:28;;;;;;;49.22;31.08;;;;;;;;;;3585134;40;20234;-83
2021/07/16 05:24:07;;;;;;;48.28;29.58;;;;;;;;;;3585416;40;20238;-87
2021/07/16 05:26:34;;;;;;;52.60;30.40;;;;;;;;;;3593425;40;20749;-83
2021/07/16 05:29:02;;;;;;;45.95;30.10;;;;;;;;;;3598079;40;20250;-82
2021/07/16 05:31:31;;;;;;;49.35;30.48;;;;;;;;;;3593499;40;20709;-85
2021/07/16 05:33:59;;;;;;;44.17;28.73;;;;;;;;;;3593118;40;20259;-82
2021/07/16 05:36:27;;;;;;;41.65;28.38;;;;;;;;;;3593030;40;20219;-83
2021/07/16 05:38:54;;;;;;;44.33;28.73;;;;;;;;;;3593275;40;20239;-85
2021/07/16 05:41:23;;;;;;;36.10;26.27;;;;;;;;;;3592681;40;20235;-85
2021/07/16 05:43:50;;;;;;;48.28;27.83;;;;;;;;;;3592850;40;20239;-85
2021/07/16 05:46:18;;;;;;;40.83;27.40;;;;;;;;;;3593054;40;20223;-82
2021/07/16 05:48:53;;;;;;;41.53;28.35;;;;;;;;;;3593514;40;20211;-81
2021/07/16 05:51:21;;;;;;;42.17;27.52;;;;;;;;;;3592987;40;20254;-82
2021/07/16 05:53:48;;;;;;;38.67;25.98;;;;;;;;;;3592873;40;20234;-85
2021/07/16 05:56:15;;;;;;;41.83;27.42;;;;;;;;;;3592841;40;20860;-81
2021/07/16 05:58:49;;;;;;;51.10;29.63;;;;;;;;;;3593450;40;20211;-83
2021/07/16 06:01:22;;;;;;;47.67;27.55;;;;;;;;;;3593303;40;20441;-82
2021/07/16 06:03:50;;;;;;;48.30;28.10;;;;;;;;;;3593154;40;20289;-83
2021/07/16 06:06:19;;;;;;;43.42;26.52;;;;;;;;;;3584466;40;20232;-84
2021/07/16 06:08:58;;;;;;;38.50;24.02;;;;;;;;;;3593982;40;20226;-81
2021/07/16 06:14:00;;;;;;;32.85;23.50;;;;;;;;;;3611526;39;20245;-80
2021/07/16 06:16:27;;;;;;;39.42;25.17;;;;;;;;;;3613194;39;20233;-82
2021/07/16 06:19:01;;;;;;;39.97;23.17;;;;;;;;;;3613313;39;20242;-82
2021/07/16 06:21:30;;;;;;;28.90;21.27;;;;;;;;;;3608043;39;20296;-81
2021/07/16 06:23:57;;;;;;;43.55;22.60;;;;;;;;;;3616670;39;20250;-82
2021/07/16 06:26:24;;;;;;;40.25;24.48;;;;;;;;;;3606510;39;20238;-84
2021/07/16 06:28:52;;;;;;;33.90;22.25;;;;;;;;;;3613631;39;20241;-83
2021/07/16 06:31:37;;;;;;;38.55;23.42;;;;;;;;;;3612461;39;20238;-82
2021/07/16 06:34:05;;;;;;;36.65;22.17;;;;;;;;;;3611072;39;20225;-82
2021/07/16 06:36:33;;;;;;;30.25;21.55;;;;;;;;;;3606369;39;20239;-81
2021/07/16 06:39:19;;;;;;;38.25;21.42;;;;;;;;;;3606981;39;20247;-84
2021/07/16 06:42:06;;;;;;;39.05;22.33;;;;;;;;;;3610273;39;20212;-82
2021/07/16 06:44:33;;;;;;;32.00;21.50;;;;;;;;;;3602950;40;20242;-82
2021/07/16 06:47:19;;;;;;;39.40;21.50;;;;;;;;;;3603078;40;20242;-84
2021/07/16 06:49:46;;;;;;;37.55;19.50;;;;;;;;;;3603021;40;20211;-82
2021/07/16 06:52:34;;;;;;;32.63;18.15;;;;;;;;;;3601459;40;20265;-81
2021/07/16 06:55:01;;;;;;;35.75;20.17;;;;;;;;;;3607902;39;20231;-83
2021/07/16 06:57:28;;;;;;;37.55;19.67;;;;;;;;;;3602516;40;20238;-82
2021/07/16 06:59:56;;;;;;;39.35;19.27;;;;;;;;;;3608305;39;20366;-82
2021/07/16 07:02:30;;;;;;;28.95;17.27;;;;;;;;;;3612263;39;20237;-82
2021/07/16 07:04:58;;;;;;;42.38;17.15;;;;;;;;;;3612605;39;20238;-86
2021/07/16 07:07:33;;;;;;;38.38;18.77;;;;;;;;;;3612108;39;20238;-83
2021/07/16 07:10:13;;;;;;;33.88;19.42;;;;;;;;;;3608193;39;20235;-82
2021/07/16 07:12:46;;;;;;;35.58;18.38;;;;;;;;;;3607287;39;20226;-83
2021/07/16 07:15:19;;;;;;;33.45;19.50;;;;;;;;;;3609114;39;20207;-82
2021/07/16 07:18:05;;;;;;;33.42;18.33;;;;;;;;;;3602291;39;20431;-82
2021/07/16 07:20:33;;;;;;;35.33;18.02;;;;;;;;;;3601894;40;20242;-82
2021/07/16 07:23:01;;;;;;;26.88;17.13;;;;;;;;;;3601944;40;20218;-82
2021/07/16 07:25:29;;;;;;;30.70;18.23;;;;;;;;;;3602081;40;20249;-83
2021/07/16 07:27:56;;;;;;;39.17;18.60;;;;;;;;;;3601853;40;20227;-84
2021/07/16 07:30:29;;;;;;;37.67;17.77;;;;;;;;;;3601862;40;20258;-84
2021/07/16 07:33:09;;;;;;;32.05;16.95;;;;;;;;;;3602338;40;20260;-83
2021/07/16 07:35:36;;;;;;;34.88;18.55;;;;;;;;;;3604955;39;20241;-83
2021/07/16 07:38:17;;;;;;;35.50;17.88;;;;;;;;;;3611795;39;20244;-86
2021/07/16 07:40:51;;;;;;;31.90;17.85;;;;;;;;;;3615880;39;20245;-82
2021/07/16 07:43:18;;;;;;;30.98;16.35;;;;;;;;;;3622568;39;20229;-84
2021/07/16 07:45:45;;;;;;;37.10;18.08;;;;;;;;;;3622494;39;20233;-83
2021/07/16 07:48:13;;;;;;;35.42;17.52;;;;;;;;;;3605006;39;20227;-82
2021/07/16 07:50:41;;;;;;;37.30;18.60;;;;;;;;;;3601971;40;20221;-85
2021/07/16 07:53:14;;;;;;;32.80;16.40;;;;;;;;;;3618923;39;20282;-82
2021/07/16 07:55:55;;;;;;;29.58;16.83;;;;;;;;;;3622414;39;20683;-86
2021/07/16 07:58:22;;;;;;;31.20;16.90;;;;;;;;;;3622263;39;20213;-82
2021/07/16 08:00:55;;;;;;;32.47;17.42;;;;;;;;;;3620501;39;20230;-81
2021/07/16 08:03:29;;;;;;;31.63;16.45;;;;;;;;;;3612379;39;20245;-83
2021/07/16 08:06:08;;;;;;;42.15;18.55;;;;;;;;;;3612108;39;20246;-85
2021/07/16 08:08:35;;;;;;;33.28;19.02;;;;;;;;;;3612321;39;20246;-82
2021/07/16 08:11:04;;;;;;;40.33;19.30;;;;;;;;;;3612044;39;20213;-82
2021/07/16 08:13:49;;;;;;;33.45;18.23;;;;;;;;;;3611914;39;20245;-83
2021/07/16 08:16:16;;;;;;;35.83;17.73;;;;;;;;;;3608744;39;20237;-85
2021/07/16 08:18:44;;;;;;;32.50;16.77;;;;;;;;;;3603276;39;20225;-83
2021/07/16 08:21:17;;;;;;;34.83;16.95;;;;;;;;;;3613236;39;20241;-85
2021/07/16 08:23:44;;;;;;;30.35;17.20;;;;;;;;;;3601806;40;20254;-81
2021/07/16 08:26:25;;;;;;;27.63;15.07;;;;;;;;;;3601956;40;20225;-82
2021/07/16 08:28:53;;;;;;;31.02;17.23;;;;;;;;;;3602002;40;20198;-83
2021/07/16 08:31:20;;;;;;;27.95;16.92;;;;;;;;;;3601785;40;20814;-83
2021/07/16 08:33:47;;;;;;;32.58;16.90;;;;;;;;;;3609305;39;20246;-82
2021/07/16 08:36:15;;;;;;;35.00;18.35;;;;;;;;;;3612132;39;20229;-82
2021/07/16 08:38:45;;;;;;;29.10;16.70;;;;;;;;;;3611916;39;20221;-81
2021/07/16 08:41:18;;;;;;;29.80;15.82;;;;;;;;;;3601679;40;20242;-84
2021/07/16 08:43:47;;;;;;;32.25;16.17;;;;;;;;;;3609254;39;20224;-81
2021/07/16 08:46:38;;;;;;;33.88;16.58;;;;;;;;;;3621304;39;20236;-82
2021/07/16 08:49:26;;;;;;;28.30;17.02;;;;;;;;;;3607151;39;20235;-81
2021/07/16 08:51:59;;;;;;;28.15;15.98;;;;;;;;;;3601494;40;20234;-80
2021/07/16 08:54:27;;;;;;;29.92;15.65;;;;;;;;;;3601691;40;20212;-79
2021/07/16 08:57:00;;;;;;;38.25;19.27;;;;;;;;;;3601690;40;20286;-79
2021/07/16 08:59:47;;;;;;;29.75;17.58;;;;;;;;;;3608161;39;20207;-79
2021/07/16 09:02:15;;;;;;;35.63;16.60;;;;;;;;;;3611286;39;20222;-80
2021/07/16 09:04:43;;;;;;;33.50;17.42;;;;;;;;;;3615173;39;20233;-80
2021/07/16 09:07:11;;;;;;;28.48;17.30;;;;;;;;;;3612057;39;20299;-83
2021/07/16 09:10:08;;;;;;;34.97;17.33;;;;;;;;;;3610911;39;20210;-79
2021/07/16 09:12:36;;;;;;;23.35;15.38;;;;;;;;;;3611197;39;20234;-80
2021/07/16 09:15:12;;;;;;;26.60;15.50;;;;;;;;;;3613125;39;20225;-80
2021/07/16 09:17:42;;;;;;;23.27;15.23;;;;;;;;;;3611295;39;20238;-79
2021/07/16 09:20:28;;;;;;;27.52;14.52;;;;;;;;;;3610138;39;20283;-79
2021/07/16 09:23:12;;;;;;;34.17;15.73;;;;;;;;;;3606379;39;20249;-81
2021/07/16 09:25:40;;;;;;;27.67;15.73;;;;;;;;;;3607925;39;20626;-82
2021/07/16 09:28:26;;;;;;;21.58;14.95;;;;;;;;;;3608792;39;20270;-80
2021/07/16 09:31:08;;;;;;;24.70;13.50;;;;;;;;;;3605799;39;20217;-82
2021/07/16 09:33:41;;;;;;;20.67;13.50;;;;;;;;;;3614693;39;20240;-81
2021/07/16 09:36:08;;;;;;;18.08;12.15;;;;;;;;;;3607286;39;20779;-81
2021/07/16 09:38:36;;;;;;;16.73;12.32;;;;;;;;;;3611635;39;20822;-83
2021/07/16 09:41:10;;;;;;;16.02;10.95;;;;;;;;;;3611072;39;20268;-80
2021/07/16 09:43:37;;;;;;;15.55;10.85;;;;;;;;;;3607611;39;20287;-83
2021/07/16 09:46:07;;;;;;;13.75;11.00;;;;;;;;;;3603097;39;20231;-81
2021/07/16 09:48:43;;;;;;;15.80;11.63;;;;;;;;;;3606517;39;20791;-81
2021/07/16 09:51:18;;;;;;;16.55;12.35;;;;;;;;;;3612701;39;20217;-80
2021/07/16 09:53:51;;;;;;;15.02;11.07;;;;;;;;;;3608990;39;20237;-81
2021/07/16 09:56:20;;;;;;;14.63;11.15;;;;;;;;;;3603742;40;20241;-81
2021/07/16 09:58:48;;;;;;;15.25;11.25;;;;;;;;;;3608107;39;20250;-81
2021/07/16 10:01:23;;;;;;;17.80;11.35;;;;;;;;;;3602690;40;20403;-81
2021/07/16 10:04:03;;;;;;;16.83;12.50;;;;;;;;;;3606359;39;20238;-81
2021/07/16 10:06:36;;;;;;;25.17;14.00;;;;;;;;;;3610437;39;20213;-81
2021/07/16 10:09:09;;;;;;;18.60;11.60;;;;;;;;;;3608004;39;20258;-80
2021/07/16 10:11:37;;;;;;;16.55;10.65;;;;;;;;;;3607346;39;20226;-84
2021/07/16 10:14:12;;;;;;;18.58;10.68;;;;;;;;;;3607780;39;20245;-80
2021/07/16 10:16:44;;;;;;;16.05;10.77;;;;;;;;;;3610863;39;20226;-83
2021/07/16 10:19:13;;;;;;;13.30;9.10;;;;;;;;;;3608406;39;20272;-81
2021/07/16 10:21:47;;;;;;;19.23;10.02;;;;;;;;;;3603985;39;20291;-82
2021/07/16 10:24:34;;;;;;;17.48;10.38;;;;;;;;;;3609999;39;20225;-81
2021/07/16 10:27:07;;;;;;;12.65;8.40;;;;;;;;;;3605703;39;20288;-85
2021/07/16 10:29:38;;;;;;;15.95;8.90;;;;;;;;;;3604081;39;20222;-87
2021/07/16 10:32:14;;;;;;;10.85;8.40;;;;;;;;;;3610099;39;20228;-80
2021/07/16 10:34:47;;;;;;;14.95;8.40;;;;;;;;;;3610661;39;20240;-78
2021/07/16 10:37:32;;;;;;;22.13;10.43;;;;;;;;;;3612310;39;20249;-79
2021/07/16 10:39:59;;;;;;;14.98;9.00;;;;;;;;;;3604909;39;20246;-80
2021/07/16 10:42:44;;;;;;;17.15;9.00;;;;;;;;;;3602269;40;20239;-81
2021/07/16 10:45:32;;;;;;;18.98;10.45;;;;;;;;;;3602463;40;20296;-78
2021/07/16 10:48:14;;;;;;;20.52;9.95;;;;;;;;;;3602466;40;20218;-80
2021/07/16 10:50:43;;;;;;;20.90;9.73;;;;;;;;;;3609096;39;20225;-80
2021/07/16 10:53:16;;;;;;;15.10;8.73;;;;;;;;;;3607814;39;20295;-79
2021/07/16 10:56:04;;;;;;;17.67;9.02;;;;;;;;;;3609969;39;20248;-82
2021/07/16 10:58:31;;;;;;;14.98;8.48;;;;;;;;;;3606369;39;20245;-83
2021/07/16 11:01:00;;;;;;;11.43;7.22;;;;;;;;;;3606726;39;20292;-78
2021/07/16 11:03:41;;;;;;;10.95;6.70;;;;;;;;;;3601985;40;20214;-81
2021/07/16 11:06:09;;;;;;;15.57;9.43;;;;;;;;;;3602380;40;20261;-81
2021/07/16 11:08:52;;;;;;;14.57;7.35;;;;;;;;;;3609982;39;20209;-79
2021/07/16 11:11:20;;;;;;;14.63;7.70;;;;;;;;;;3612359;39;20299;-80
2021/07/16 11:13:59;;;;;;;15.73;7.88;;;;;;;;;;3612219;39;20237;-82
2021/07/16 11:16:41;;;;;;;16.48;8.15;;;;;;;;;;3608506;39;20230;-80
2021/07/16 11:19:23;;;;;;;15.48;7.70;;;;;;;;;;3612042;39;20744;-80
2021/07/16 11:22:01;;;;;;;14.88;7.95;;;;;;;;;;3610842;39;20245;-80
2021/07/16 11:24:35;;;;;;;18.40;8.40;;;;;;;;;;3609668;39;20234;-79
2021/07/16 11:27:15;;;;;;;19.73;10.43;;;;;;;;;;3607356;39;20221;-81
2021/07/16 11:30:01;;;;;;;18.73;10.13;;;;;;;;;;3609224;39;20241;-83
2021/07/16 11:32:29;;;;;;;16.85;10.88;;;;;;;;;;3617765;22;20250;-40
2021/07/16 11:35:05;;;;;;;23.13;11.48;;;;;;;;;;3574357;40;20237;-40
2021/07/16 11:37:48;;;;;;;14.77;11.25;;;;;;;;;;3576845;40;20614;-40
2021/07/16 11:40:17;;;;;;;17.88;10.45;;;;;;;;;;3578391;40;20266;-42
2021/07/16 11:42:45;;;;;;;13.77;9.85;;;;;;;;;;3578093;40;20588;-40
2021/07/16 11:45:14;;;;;;;23.27;11.75;;;;;;;;;;3578277;40;20243;-41
2021/07/16 11:47:41;;;;;;;18.67;10.50;;;;;;;;;;3577205;40;20686;-40
2021/07/16 11:50:09;;;;;;;17.23;9.77;;;;;;;;;;3573576;40;20235;-41
2021/07/16 11:52:57;;;;;;;18.52;9.60;;;;;;;;;;3576121;40;20293;-40
2021/07/16 11:55:26;;;;;;;18.02;11.32;;;;;;;;;;3572228;40;20246;-43
2021/07/16 11:57:54;;;;;;;23.40;11.48;;;;;;;;;;3577810;40;20238;-40
2021/07/16 12:00:23;;;;;;;21.20;11.75;;;;;;;;;;3577974;40;20508;-40
2021/07/16 12:02:50;;;;;;;25.70;11.20;;;;;;;;;;3577638;40;20250;-42
2021/07/16 12:05:21;;;;;;;21.60;12.13;;;;;;;;;;3577181;40;20596;-40
2021/07/16 12:07:49;;;;;;;25.33;11.95;;;;;;;;;;3577857;40;20257;-42
2021/07/16 12:10:36;;;;;;;22.38;11.77;;;;;;;;;;3578362;40;20294;-40
2021/07/16 12:13:16;;;;;;;26.83;12.23;;;;;;;;;;3567631;40;20280;-43
2021/07/16 12:15:44;;;;;;;23.88;10.95;;;;;;;;;;3571440;40;20251;-41
2021/07/16 12:18:12;;;;;;;20.33;10.50;;;;;;;;;;3571719;40;20235;-40
2021/07/16 12:20:40;;;;;;;22.65;11.23;;;;;;;;;;3577400;40;20233;-42
2021/07/16 12:23:19;;;;;;;19.73;10.60;;;;;;;;;;3578459;40;20255;-40
2021/07/16 12:25:48;;;;;;;20.48;10.00;;;;;;;;;;3577898;40;20235;-40
2021/07/16 12:28:31;;;;;;;16.08;10.00;;;;;;;;;;3578172;40;20321;-40
2021/07/16 12:31:02;;;;;;;18.40;11.10;;;;;;;;;;3577675;40;20246;-39
2021/07/16 12:33:33;;;;;;;19.33;11.15;;;;;;;;;;3576641;40;20251;-41
2021/07/16 12:36:22;;;;;;;18.58;11.07;;;;;;;;;;3572492;40;20597;-39
2021/07/16 12:39:01;;;;;;;27.60;13.38;;;;;;;;;;3576187;40;20235;-41
2021/07/16 12:41:42;;;;;;;19.95;10.52;;;;;;;;;;3574184;40;20438;-40
2021/07/16 12:44:11;;;;;;;20.40;10.95;;;;;;;;;;3575114;40;20243;-41
2021/07/16 12:46:59;;;;;;;20.40;9.93;;;;;;;;;;3578126;40;20309;-40
2021/07/16 12:49:26;;;;;;;21.80;11.40;;;;;;;;;;3578457;40;20255;-40
2021/07/16 12:51:53;;;;;;;18.73;11.88;;;;;;;;;;3577425;40;20243;-40
2021/07/16 12:54:33;;;;;;;23.67;12.07;;;;;;;;;;3632718;22;20310;-81
2021/07/16 12:57:14;;;;;;;20.33;11.88;;;;;;;;;;3607510;39;20401;-83
2021/07/16 12:59:49;;;;;;;22.00;10.77;;;;;;;;;;3606464;39;20217;-81
2021/07/16 13:02:28;;;;;;;21.05;12.48;;;;;;;;;;3600426;39;20305;-81
2021/07/16 13:04:55;;;;;;;20.65;11.50;;;;;;;;;;3599648;40;20218;-82
2021/07/16 13:07:24;;;;;;;25.48;13.27;;;;;;;;;;3603545;40;20226;-81
2021/07/16 13:09:51;;;;;;;19.60;12.48;;;;;;;;;;3603552;40;20283;-80
2021/07/16 13:12:20;;;;;;;22.10;13.30;;;;;;;;;;3603542;40;20230;-80
2021/07/16 13:14:52;;;;;;;21.15;12.50;;;;;;;;;;3593498;40;20265;-80
2021/07/16 13:17:27;;;;;;;19.52;11.60;;;;;;;;;;3596163;39;20235;-80
2021/07/16 13:20:15;;;;;;;18.98;10.35;;;;;;;;;;3602191;40;20251;-78
2021/07/16 13:22:43;;;;;;;26.27;12.77;;;;;;;;;;3602997;40;20230;-79
2021/07/16 13:25:11;;;;;;;23.52;11.52;;;;;;;;;;3594059;40;20255;-81
2021/07/16 13:27:47;;;;;;;23.27;12.90;;;;;;;;;;3603253;40;20213;-79
2021/07/16 13:30:15;;;;;;;26.50;12.77;;;;;;;;;;3603276;40;20234;-80
2021/07/16 13:32:48;;;;;;;20.88;11.10;;;;;;;;;;3602105;40;20403;-80
2021/07/16 13:35:21;;;;;;;18.80;11.48;;;;;;;;;;3597642;40;20242;-80
2021/07/16 13:37:49;;;;;;;20.80;11.05;;;;;;;;;;3600113;39;20245;-82
2021/07/16 13:40:16;;;;;;;22.42;10.85;;;;;;;;;;3596098;39;20235;-79
2021/07/16 13:42:43;;;;;;;17.05;9.88;;;;;;;;;;3602779;40;20246;-80
2021/07/16 13:45:31;;;;;;;21.40;10.00;;;;;;;;;;3598905;40;20226;-82
2021/07/16 13:48:17;;;;;;;19.63;10.93;;;;;;;;;;3593226;40;20262;-80
2021/07/16 13:50:44;;;;;;;19.67;10.15;;;;;;;;;;3593326;40;20321;-79
2021/07/16 13:53:12;;;;;;;18.17;10.82;;;;;;;;;;3600207;39;20246;-81
2021/07/16 13:55:39;;;;;;;20.05;10.30;;;;;;;;;;3598649;39;20264;-80
2021/07/16 13:58:25;;;;;;;15.88;10.70;;;;;;;;;;3592960;40;20231;-81
2021/07/16 14:00:53;;;;;;;19.13;10.43;;;;;;;;;;3597439;40;20254;-80
2021/07/16 14:03:21;;;;;;;16.83;10.10;;;;;;;;;;3597397;40;20274;-80
2021/07/16 14:05:48;;;;;;;19.80;10.75;;;;;;;;;;3601622;40;20243;-81
2021/07/16 14:08:28;;;;;;;16.00;9.32;;;;;;;;;;3603316;40;20231;-80
2021/07/16 14:11:08;;;;;;;21.15;10.55;;;;;;;;;;3603086;40;20230;-80
2021/07/16 14:13:35;;;;;;;23.52;10.75;;;;;;;;;;3598500;39;20247;-79
2021/07/16 14:16:04;;;;;;;23.85;9.32;;;;;;;;;;3596529;39;20246;-81
2021/07/16 14:18:31;;;;;;;22.75;10.57;;;;;;;;;;3594574;39;20231;-84
2021/07/16 14:20:59;;;;;;;16.40;8.55;;;;;;;;;;3598533;39;20231;-79
2021/07/16 14:23:44;;;;;;;24.52;10.50;;;;;;;;;;3596040;39;20318;-81
2021/07/16 14:26:12;;;;;;;23.95;9.68;;;;;;;;;;3594546;39;20243;-81
2021/07/16 14:28:57;;;;;;;22.75;9.50;;;;;;;;;;3602929;40;20240;-81
2021/07/16 14:31:26;;;;;;;22.80;10.07;;;;;;;;;;3597171;40;20227;-82
2021/07/16 14:33:54;;;;;;;18.58;9.77;;;;;;;;;;3599742;39;20243;-81
2021/07/16 14:36:22;;;;;;;27.00;10.00;;;;;;;;;;3599627;40;20230;-81
2021/07/16 14:38:49;;;;;;;24.88;9.63;;;;;;;;;;3600200;39;20255;-81
2021/07/16 14:41:22;;;;;;;23.98;10.65;;;;;;;;;;3598428;39;20508;-80
2021/07/16 14:43:56;;;;;;;16.83;9.55;;;;;;;;;;3594365;39;20768;-81
2021/07/16 14:46:43;;;;;;;21.05;9.23;;;;;;;;;;3587547;40;20314;-81
2021/07/16 14:49:10;;;;;;;22.55;10.88;;;;;;;;;;3572583;40;20241;-81
2021/07/16 14:51:38;;;;;;;23.25;9.57;;;;;;;;;;3572163;40;20240;-79
2021/07/16 15:09:11;;;;;;;18.92;8.73;;;;;;;;;;3571232;40;20271;-81
2021/07/16 15:11:38;;;;;;;21.50;8.23;;;;;;;;;;3574518;40;20235;-80
2021/07/16 15:14:06;;;;;;;16.15;8.65;;;;;;;;;;3582403;40;20307;-81
2021/07/16 15:16:46;;;;;;;18.23;7.90;;;;;;;;;;3579197;40;20448;-82
2021/07/16 15:19:13;;;;;;;18.77;7.97;;;;;;;;;;3572349;40;20676;-83
2021/07/16 15:21:41;;;;;;;17.08;8.55;;;;;;;;;;3572428;40;20224;-80
2021/07/16 15:24:08;;;;;;;16.23;8.65;;;;;;;;;;3572682;40;20668;-84
2021/07/16 15:26:43;;;;;;;17.75;9.45;;;;;;;;;;3571885;40;20761;-81
2021/07/16 15:29:10;;;;;;;25.73;10.55;;;;;;;;;;3572397;40;20223;-83
2021/07/16 15:31:56;;;;;;;19.65;8.73;;;;;;;;;;3571844;40;20235;-84
2021/07/16 15:34:24;;;;;;;18.13;8.45;;;;;;;;;;3572477;40;20244;-81
2021/07/16 15:36:51;;;;;;;23.50;8.32;;;;;;;;;;3572321;40;20265;-82
2021/07/16 15:39:30;;;;;;;21.27;9.70;;;;;;;;;;3571625;40;20232;-83
2021/07/16 15:42:17;;;;;;;20.55;9.90;;;;;;;;;;3572190;40;20247;-82
2021/07/16 15:44:51;;;;;;;18.20;9.13;;;;;;;;;;3572564;40;20252;-81